Albion, California
Current Conditions -  °F | °C
As of 11:44 PM on Tuesday 25 Nov 2014 (Local Time) from KUKI Reporting Station
Haze Haze  
Wind Chill:   Ceiling: Unl
Heat Index:   Visibility: 1.7mi
Dew Point:   Wind: 0mph
Humidity: 89%   Direction: NA
Pressure: 30.36"   Gusts: NA
Location:  39.22°N, 123.77°W
Report Text: KUKI 260744Z AUTO 00000KT 1 3/4SM BR CLR 06/04 A3036 RMK AO2 T00560039
Loading
Personal Weather Stations






























Interactive Weather Map New forecast layout! Learn more

10-Day Weather Forecast

Advertisements
Track Severe Weather on mobile